Aviation Digital Data Service (ADDS)

Output produced by METARs form (2147 UTC 16 February 2019)
found at http://www.aviationweather.gov/metar/data/
 
Forecast for: NWWW (LA TONTOUTA NLLE, WS)
Text: TAF NWWW 161700Z 1618/1718 12008KT 9999 SCT010 BKN020
Forecast period: 1800 UTC 16 February 2019 to 1800 UTC 17 February 2019
Forecast type: FROM: standard forecast or significant change
Winds: from the ESE (120 degrees) at 9 MPH (8 knots; 4.1 m/s)
Visibility: 6 or more miles 10+ km)
Ceiling: 2000 feet AGL
Clouds: scattered clouds at 1000 feet AGL
broken clouds at 2000 feet AGL
Weather: no significant weather forecast for this period
Text: TEMPO 1618/1718 3000 SHRA BKN006 FEW018CB
Forecast period: 1800 UTC 16 February 2019 to 1800 UTC 17 February 2019
Forecast type: TEMPORARY: The following changes expected for less than half the time period
Visibility: 1.86 miles (2.99 km)
Ceiling: 600 feet AGL
Clouds: broken clouds at 600 feet AGL
few clouds at 1800 feet AGL
Weather: SHRA  (rain showers)
Text: PROB40
Forecast period: 0400 to 1800 UTC 17 February 2019
Forecast type: TEMPORARY: The following changes expected for less than half the time period
Winds: from the ENE (70 degrees) at 17 MPH (15 knots; 7.7 m/s)
gusting to 29 MPH (25 knots; 12.9 m/s)
Visibility: 0.87 miles (1.40 km)
Ceiling: unknown
Clouds: missing
Weather: TSRA  (rain associated with thunderstorm(s))